Time;durP1;ratioP1;P1;durP2;ratioP2;P2;SDS_P1;SDS_P2;PMS_P1;PMS_P2;Temp;Humidity;BMP_temperature;BMP_pressure;BME280_temperature;BME280_humidity;BME280_pressure;Samples;Min_cycle;Max_cycle;Signal;HPM_P1;HPM_P2
2022/09/24 00:02:01;;;;;;;;;;;;;;;;;;5091093;28;801;-73
2022/09/24 00:04:27;;;;;;;;;;;;;;;;;;5091111;28;1091;-73
2022/09/24 00:06:53;;;;;;;;;;;;;;;;;;5091287;28;794;-73
2022/09/24 00:09:20;;;;;;;;;;;;;;;;;;5091139;28;1339;-73
2022/09/24 00:11:48;;;;;;;;;;;;;;;;;;5089307;28;1913;-74
2022/09/24 00:14:14;;;;;;;;;;;;;;;;;;5091324;28;897;-72
2022/09/24 00:16:42;;;;;;;;;;;;;;;;;;5089730;28;1123;-72
2022/09/24 00:19:09;;;;;;;;;;;;;;;;;;5091028;28;1410;-73
2022/09/24 00:21:35;;;;;;;;;;;;;;;;;;5089230;28;1269;-72
2022/09/24 00:24:03;;;;;;;;;;;;;;;;;;5089767;28;1305;-73
2022/09/24 00:29:13;;;;;;;;;;;;;;;;;;5089754;28;1331;-73
2022/09/24 00:31:40;;;;;;;;;;;;;;;;;;5090733;28;1914;-71
2022/09/24 00:34:07;;;;;;;;;;;;;;;;;;5093753;28;1119;-73
2022/09/24 00:36:33;;;;;;;;;;;;;;;;;;5094663;28;1075;-71
2022/09/24 00:39:00;;;;;;;;;;;;;;;;;;5094476;28;1309;-73
2022/09/24 00:41:27;;;;;;;;;;;;;;;;;;5092858;28;1231;-73
2022/09/24 00:43:53;;;;;;;;;;;;;;;;;;5093187;28;1272;-74
2022/09/24 00:46:20;;;;;;;;;;;;;;;;;;5094494;28;1118;-73
2022/09/24 00:48:47;;;;;;;;;;;;;;;;;;5094084;28;1294;-75
2022/09/24 00:51:15;;;;;;;;;;;;;;;;;;5093009;28;1984;-71
2022/09/24 00:53:41;;;;;;;;;;;;;;;;;;5094107;28;1083;-73
2022/09/24 00:56:08;;;;;;;;;;;;;;;;;;5094470;28;920;-72
2022/09/24 00:58:34;;;;;;;;;;;;;;;;;;5092742;28;1315;-73
2022/09/24 01:01:01;;;;;;;;;;;;;;;;;;5094031;28;1152;-73
2022/09/24 01:03:28;;;;;;;;;;;;;;;;;;5093800;28;1000;-73
2022/09/24 01:05:54;;;;;;;;;;;;;;;;;;5092659;28;1343;-73
2022/09/24 01:08:21;;;;;;;;;;;;;;;;;;5094223;28;1417;-73
2022/09/24 01:10:51;;;;;;;;;;;;;;;;;;5093652;28;1985;-72
2022/09/24 01:13:32;;;;;;;;;;;;;;;;;;5093147;28;1455;-74
2022/09/24 01:15:59;;;;;;;;;;;;;;;;;;5086558;28;1101;-73
2022/09/24 01:18:27;;;;;;;;;;;;;;;;;;5073591;28;1410;-71
2022/09/24 01:20:55;;;;;;;;;;;;;;;;;;5073533;28;1060;-73
2022/09/24 01:23:48;;;;;;;;;;;;;;;;;;5073430;28;1090;-72
2022/09/24 01:26:18;;;;;;;;;;;;;;;;;;5025999;28;1065;-72
2022/09/24 01:28:51;;;;;;;;;;;;;;;;;;5073170;28;1395;-72
2022/09/24 01:31:19;;;;;;;;;;;;;;;;;;5072934;28;1977;-71
2022/09/24 01:33:45;;;;;;;;;;;;;;;;;;5073085;28;1071;-72
2022/09/24 01:36:11;;;;;;;;;;;;;;;;;;5073166;28;1087;-72
2022/09/24 01:38:39;;;;;;;;;;;;;;;;;;5072986;28;1308;-73
2022/09/24 01:41:06;;;;;;;;;;;;;;;;;;5073185;28;1118;-74
2022/09/24 01:43:32;;;;;;;;;;;;;;;;;;5072341;28;1130;-73
2022/09/24 01:45:58;;;;;;;;;;;;;;;;;;5054389;28;1290;-73
2022/09/24 01:48:26;;;;;;;;;;;;;;;;;;5072807;28;1324;-73
2022/09/24 01:50:55;;;;;;;;;;;;;;;;;;5072796;28;1918;-72
2022/09/24 01:53:22;;;;;;;;;;;;;;;;;;5072744;28;1076;-73
2022/09/24 01:55:49;;;;;;;;;;;;;;;;;;5072714;28;1115;-73
2022/09/24 01:58:16;;;;;;;;;;;;;;;;;;5072788;28;1309;-73
2022/09/24 02:00:43;;;;;;;;;;;;;;;;;;5072562;28;1083;-74
2022/09/24 02:03:10;;;;;;;;;;;;;;;;;;5054525;28;1131;-73
2022/09/24 02:05:39;;;;;;;;;;;;;;;;;;5072342;28;1131;-73
2022/09/24 02:08:07;;;;;;;;;;;;;;;;;;5072703;28;1068;-73
2022/09/24 02:10:34;;;;;;;;;;;;;;;;;;5054399;28;1417;-74
2022/09/24 02:13:01;;;;;;;;;;;;;;;;;;5071960;28;1918;-73
2022/09/24 02:15:28;;;;;;;;;;;;;;;;;;5072383;28;1075;-73
2022/09/24 02:17:55;;;;;;;;;;;;;;;;;;5072089;28;1056;-73
2022/09/24 02:20:22;;;;;;;;;;;;;;;;;;5072295;28;1321;-72
2022/09/24 02:22:50;;;;;;;;;;;;;;;;;;5071864;28;1064;-73
2022/09/24 02:25:18;;;;;;;;;;;;;;;;;;5054250;28;941;-73
2022/09/24 02:27:44;;;;;;;;;;;;;;;;;;5072151;28;772;-74
2022/09/24 02:30:10;;;;;;;;;;;;;;;;;;5072054;28;1303;-73
2022/09/24 02:32:37;;;;;;;;;;;;;;;;;;5053702;28;1914;-74
2022/09/24 02:35:05;;;;;;;;;;;;;;;;;;5054312;28;1369;-73
2022/09/24 02:37:33;;;;;;;;;;;;;;;;;;5054049;28;1132;-73
2022/09/24 02:40:01;;;;;;;;;;;;;;;;;;5071947;28;1365;-74
2022/09/24 02:42:30;;;;;;;;;;;;;;;;;;5071575;28;803;-74
2022/09/24 02:44:58;;;;;;;;;;;;;;;;;;5072051;28;878;-73
2022/09/24 02:47:24;;;;;;;;;;;;;;;;;;5071919;28;799;-73
2022/09/24 02:49:50;;;;;;;;;;;;;;;;;;5071774;28;1419;-73
2022/09/24 02:52:17;;;;;;;;;;;;;;;;;;5053575;28;1907;-73
2022/09/24 02:54:43;;;;;;;;;;;;;;;;;;5071730;28;1068;-72
2022/09/24 02:57:11;;;;;;;;;;;;;;;;;;5071490;28;1067;-70
2022/09/24 02:59:37;;;;;;;;;;;;;;;;;;5071557;28;1306;-71
2022/09/24 03:02:04;;;;;;;;;;;;;;;;;;5071389;28;948;-73
2022/09/24 03:04:30;;;;;;;;;;;;;;;;;;5071703;28;1088;-73
2022/09/24 03:06:56;;;;;;;;;;;;;;;;;;5053758;28;1151;-72
2022/09/24 03:12:04;;;;;;;;;;;;;;;;;;5006730;28;1918;-75
2022/09/24 03:14:32;;;;;;;;;;;;;;;;;;5011560;28;1195;-75
2022/09/24 03:16:58;;;;;;;;;;;;;;;;;;5011140;28;1523;-76
2022/09/24 03:19:24;;;;;;;;;;;;;;;;;;5011536;28;1092;-75
2022/09/24 03:21:50;;;;;;;;;;;;;;;;;;5011315;28;1341;-76
2022/09/24 03:24:16;;;;;;;;;;;;;;;;;;5011561;28;1107;-76
2022/09/24 03:26:43;;;;;;;;;;;;;;;;;;5011565;28;1076;-75
2022/09/24 03:29:09;;;;;;;;;;;;;;;;;;5011497;28;769;-78
2022/09/24 03:31:36;;;;;;;;;;;;;;;;;;5009641;28;1914;-76
2022/09/24 03:34:02;;;;;;;;;;;;;;;;;;5011488;28;1182;-75
2022/09/24 03:36:28;;;;;;;;;;;;;;;;;;5011505;28;1012;-75
2022/09/24 03:38:55;;;;;;;;;;;;;;;;;;5011445;28;783;-76
2022/09/24 03:41:22;;;;;;;;;;;;;;;;;;5011159;28;1322;-76
2022/09/24 03:43:48;;;;;;;;;;;;;;;;;;5011526;28;1123;-76
2022/09/24 03:46:15;;;;;;;;;;;;;;;;;;5011744;28;1142;-76
2022/09/24 03:48:45;;;;;;;;;;;;;;;;;;5011358;28;1128;-75
2022/09/24 03:51:12;;;;;;;;;;;;;;;;;;5011036;28;1977;-75
2022/09/24 03:53:39;;;;;;;;;;;;;;;;;;5011050;28;1135;-76
2022/09/24 03:56:05;;;;;;;;;;;;;;;;;;5009850;28;1017;-76
2022/09/24 03:58:34;;;;;;;;;;;;;;;;;;5002972;28;1657;-76
2022/09/24 04:01:01;;;;;;;;;;;;;;;;;;5010797;28;1365;-75
2022/09/24 04:03:27;;;;;;;;;;;;;;;;;;5010643;28;946;-75
2022/09/24 04:05:55;;;;;;;;;;;;;;;;;;5011236;28;993;-76
2022/09/24 04:08:22;;;;;;;;;;;;;;;;;;5012864;28;1072;-75
2022/09/24 04:10:48;;;;;;;;;;;;;;;;;;5014686;28;1256;-75
2022/09/24 04:13:15;;;;;;;;;;;;;;;;;;5014489;28;1970;-76
2022/09/24 04:15:41;;;;;;;;;;;;;;;;;;5014955;28;1072;-75
2022/09/24 04:18:07;;;;;;;;;;;;;;;;;;5014733;28;921;-75
2022/09/24 04:20:33;;;;;;;;;;;;;;;;;;5014902;28;1400;-75
2022/09/24 04:23:01;;;;;;;;;;;;;;;;;;5015401;28;906;-75
2022/09/24 04:25:30;;;;;;;;;;;;;;;;;;5015926;28;1104;-75
2022/09/24 04:27:57;;;;;;;;;;;;;;;;;;5015367;28;1158;-75
2022/09/24 04:30:23;;;;;;;;;;;;;;;;;;5013412;28;1447;-75
2022/09/24 04:32:50;;;;;;;;;;;;;;;;;;5014042;28;1914;-78
2022/09/24 04:35:16;;;;;;;;;;;;;;;;;;5014550;28;988;-75
2022/09/24 04:37:43;;;;;;;;;;;;;;;;;;5014392;28;925;-75
2022/09/24 04:40:11;;;;;;;;;;;;;;;;;;5013039;28;1311;-76
2022/09/24 04:42:37;;;;;;;;;;;;;;;;;;5014103;28;1080;-75
2022/09/24 04:45:04;;;;;;;;;;;;;;;;;;5046585;28;1097;-76
2022/09/24 04:47:30;;;;;;;;;;;;;;;;;;5014501;28;1060;-76
2022/09/24 04:49:57;;;;;;;;;;;;;;;;;;5012744;28;1338;-76
2022/09/24 04:52:28;;;;;;;;;;;;;;;;;;5013869;28;1972;-76
2022/09/24 04:54:56;;;;;;;;;;;;;;;;;;5014147;28;1095;-76
2022/09/24 04:57:24;;;;;;;;;;;;;;;;;;5014041;28;1060;-75
2022/09/24 04:59:50;;;;;;;;;;;;;;;;;;5013940;28;1776;-76
2022/09/24 05:02:17;;;;;;;;;;;;;;;;;;5012273;28;1212;-76
2022/09/24 05:04:44;;;;;;;;;;;;;;;;;;5013899;28;961;-76
2022/09/24 05:07:10;;;;;;;;;;;;;;;;;;5013802;28;870;-76
2022/09/24 05:09:36;;;;;;;;;;;;;;;;;;5013723;28;1254;-76
2022/09/24 05:12:03;;;;;;;;;;;;;;;;;;5013361;28;1978;-76
2022/09/24 05:14:30;;;;;;;;;;;;;;;;;;5045339;28;1145;-76
2022/09/24 05:16:57;;;;;;;;;;;;;;;;;;5013612;28;1063;-76
2022/09/24 05:19:23;;;;;;;;;;;;;;;;;;5013173;28;1484;-76
2022/09/24 05:21:49;;;;;;;;;;;;;;;;;;5013184;28;1512;-77
2022/09/24 05:24:15;;;;;;;;;;;;;;;;;;4996016;28;1112;-76
2022/09/24 05:29:26;;;;;;;;;;;;;;;;;;5013651;28;953;-76
2022/09/24 05:31:53;;;;;;;;;;;;;;;;;;5012782;28;1972;-75
2022/09/24 05:34:20;;;;;;;;;;;;;;;;;;5028700;28;1246;-76
2022/09/24 05:36:46;;;;;;;;;;;;;;;;;;5013439;28;1115;-74
2022/09/24 05:39:13;;;;;;;;;;;;;;;;;;5012280;28;1941;-76
2022/09/24 05:41:39;;;;;;;;;;;;;;;;;;5013025;28;1312;-76
2022/09/24 05:44:05;;;;;;;;;;;;;;;;;;5012964;28;905;-76
2022/09/24 05:46:32;;;;;;;;;;;;;;;;;;5011843;28;1325;-75
2022/09/24 05:49:00;;;;;;;;;;;;;;;;;;5013010;28;823;-76
2022/09/24 05:51:26;;;;;;;;;;;;;;;;;;5012487;28;1373;-76
2022/09/24 05:53:52;;;;;;;;;;;;;;;;;;5011668;28;1902;-76
2022/09/24 05:56:18;;;;;;;;;;;;;;;;;;5012666;28;953;-76
2022/09/24 05:58:44;;;;;;;;;;;;;;;;;;5012861;28;1120;-76
2022/09/24 06:01:11;;;;;;;;;;;;;;;;;;5011521;28;1346;-79
2022/09/24 06:03:37;;;;;;;;;;;;;;;;;;5011753;28;1577;-75
2022/09/24 06:06:05;;;;;;;;;;;;;;;;;;5012634;28;1064;-76
2022/09/24 06:08:31;;;;;;;;;;;;;;;;;;5011370;28;1674;-76
2022/09/24 06:10:58;;;;;;;;;;;;;;;;;;5012245;28;1470;-77
2022/09/24 06:13:24;;;;;;;;;;;;;;;;;;5012437;28;1914;-76
2022/09/24 06:15:50;;;;;;;;;;;;;;;;;;5012563;28;1134;-76
2022/09/24 06:18:16;;;;;;;;;;;;;;;;;;5004280;28;1718;-76
2022/09/24 06:20:43;;;;;;;;;;;;;;;;;;5011210;28;1366;-76
2022/09/24 06:23:10;;;;;;;;;;;;;;;;;;5012282;28;890;-76
2022/09/24 06:25:36;;;;;;;;;;;;;;;;;;5012689;28;1060;-76
2022/09/24 06:28:03;;;;;;;;;;;;;;;;;;5010839;28;1274;-76
2022/09/24 06:30:30;;;;;;;;;;;;;;;;;;5011825;28;1274;-76
2022/09/24 06:33:00;;;;;;;;;;;;;;;;;;5011837;28;1914;-76
2022/09/24 06:35:26;;;;;;;;;;;;;;;;;;5012293;28;1067;-76
2022/09/24 06:37:53;;;;;;;;;;;;;;;;;;5012309;28;1109;-76
2022/09/24 06:40:24;;;;;;;;;;;;;;;;;;5012094;28;1262;-76
2022/09/24 06:42:50;;;;;;;;;;;;;;;;;;5011819;28;1060;-76
2022/09/24 06:45:16;;;;;;;;;;;;;;;;;;5010757;28;1168;-76
2022/09/24 06:47:43;;;;;;;;;;;;;;;;;;5012269;28;1154;-76
2022/09/24 06:50:09;;;;;;;;;;;;;;;;;;5011802;28;1295;-76
2022/09/24 06:52:35;;;;;;;;;;;;;;;;;;5010284;28;1914;-76
2022/09/24 06:55:01;;;;;;;;;;;;;;;;;;5012057;28;938;-76
2022/09/24 06:57:29;;;;;;;;;;;;;;;;;;5011820;28;1080;-76
2022/09/24 06:59:55;;;;;;;;;;;;;;;;;;5011836;28;1357;-76
2022/09/24 07:02:21;;;;;;;;;;;;;;;;;;5010205;28;1330;-76
2022/09/24 07:04:48;;;;;;;;;;;;;;;;;;5011662;28;1060;-76
2022/09/24 07:07:30;;;;;;;;;;;;;;;;;;5011631;28;977;-76
2022/09/24 07:09:56;;;;;;;;;;;;;;;;;;5010099;28;1380;-76
2022/09/24 07:12:23;;;;;;;;;;;;;;;;;;5011456;28;1914;-76
2022/09/24 07:14:50;;;;;;;;;;;;;;;;;;5010613;28;1053;-76
2022/09/24 07:17:16;;;;;;;;;;;;;;;;;;5011672;28;1116;-76
2022/09/24 07:19:44;;;;;;;;;;;;;;;;;;5011684;28;1380;-76
2022/09/24 07:22:11;;;;;;;;;;;;;;;;;;5011189;28;1265;-76
2022/09/24 07:24:37;;;;;;;;;;;;;;;;;;5043484;28;917;-76
2022/09/24 07:27:03;;;;;;;;;;;;;;;;;;5011259;28;1080;-76
2022/09/24 07:29:29;;;;;;;;;;;;;;;;;;5011255;28;1547;-77
2022/09/24 07:31:57;;;;;;;;;;;;;;;;;;5011149;28;930;-76
2022/09/24 07:34:24;;;;;;;;;;;;;;;;;;5011110;28;1914;-76
2022/09/24 07:36:50;;;;;;;;;;;;;;;;;;5011434;28;1127;-76
2022/09/24 07:39:16;;;;;;;;;;;;;;;;;;5011312;28;981;-76
2022/09/24 07:41:42;;;;;;;;;;;;;;;;;;5010954;28;1305;-76
2022/09/24 07:44:08;;;;;;;;;;;;;;;;;;5014469;28;938;-76
2022/09/24 07:46:35;;;;;;;;;;;;;;;;;;5015434;28;792;-76
2022/09/24 07:49:02;;;;;;;;;;;;;;;;;;5015346;28;1009;-76
2022/09/24 07:51:29;;;;;;;;;;;;;;;;;;5014801;28;1290;-76
2022/09/24 07:53:55;;;;;;;;;;;;;;;;;;5015550;28;1914;-77
2022/09/24 07:56:21;;;;;;;;;;;;;;;;;;5015239;28;1120;-76
2022/09/24 07:58:48;;;;;;;;;;;;;;;;;;5015126;28;1029;-76
2022/09/24 08:01:15;;;;;;;;;;;;;;;;;;5015029;28;1360;-76
2022/09/24 08:03:41;;;;;;;;;;;;;;;;;;5014647;28;1740;-76
2022/09/24 08:06:09;;;;;;;;;;;;;;;;;;5015311;28;1063;-76
2022/09/24 08:08:37;;;;;;;;;;;;;;;;;;5030533;28;1056;-76
2022/09/24 08:11:04;;;;;;;;;;;;;;;;;;5014930;28;1415;-76
2022/09/24 08:13:30;;;;;;;;;;;;;;;;;;4997347;28;1910;-76
2022/09/24 08:15:58;;;;;;;;;;;;;;;;;;5014893;28;1073;-76
2022/09/24 08:18:24;;;;;;;;;;;;;;;;;;4997315;28;1293;-76
2022/09/24 08:20:50;;;;;;;;;;;;;;;;;;4997238;28;1399;-76
2022/09/24 08:23:19;;;;;;;;;;;;;;;;;;4997059;28;1109;-76
2022/09/24 08:25:45;;;;;;;;;;;;;;;;;;5015077;28;802;-76
2022/09/24 08:28:15;;;;;;;;;;;;;;;;;;5014614;28;1060;-76
2022/09/24 08:30:41;;;;;;;;;;;;;;;;;;5014830;28;1310;-76
2022/09/24 08:33:08;;;;;;;;;;;;;;;;;;5014166;28;1910;-77
2022/09/24 08:35:34;;;;;;;;;;;;;;;;;;4997088;28;1239;-77
2022/09/24 08:38:02;;;;;;;;;;;;;;;;;;5014393;28;969;-77
2022/09/24 08:40:30;;;;;;;;;;;;;;;;;;5014318;28;1342;-76
2022/09/24 08:42:59;;;;;;;;;;;;;;;;;;5013853;28;1115;-76
2022/09/24 08:48:10;;;;;;;;;;;;;;;;;;5014424;28;1064;-76
2022/09/24 08:50:38;;;;;;;;;;;;;;;;;;5014406;28;1364;-76
2022/09/24 08:53:11;;;;;;;;;;;;;;;;;;5013350;28;1972;-76
2022/09/24 08:55:39;;;;;;;;;;;;;;;;;;5029512;28;1124;-76
2022/09/24 08:58:11;;;;;;;;;;;;;;;;;;5013020;28;1068;-76
2022/09/24 09:00:39;;;;;;;;;;;;;;;;;;5013561;28;1332;-76
2022/09/24 09:03:06;;;;;;;;;;;;;;;;;;5012746;28;994;-76
2022/09/24 09:05:39;;;;;;;;;;;;;;;;;;5014161;28;965;-76
2022/09/24 09:08:08;;;;;;;;;;;;;;;;;;5013924;28;1064;-76
2022/09/24 09:10:36;;;;;;;;;;;;;;;;;;5013842;28;1283;-76
2022/09/24 09:13:04;;;;;;;;;;;;;;;;;;5013441;28;1963;-76
2022/09/24 09:15:31;;;;;;;;;;;;;;;;;;5013853;28;1123;-76
2022/09/24 09:20:47;;;;;;;;;;;;;;;;;;4995699;28;1408;-74
2022/09/24 09:23:15;;;;;;;;;;;;;;;;;;4992656;28;1128;-74
2022/09/24 09:25:42;;;;;;;;;;;;;;;;;;4994120;28;1073;-74
2022/09/24 09:28:13;;;;;;;;;;;;;;;;;;4993962;28;1406;-74
2022/09/24 09:30:42;;;;;;;;;;;;;;;;;;5005254;28;1507;-73
2022/09/24 09:33:17;;;;;;;;;;;;;;;;;;5013153;28;1907;-75
2022/09/24 09:35:45;;;;;;;;;;;;;;;;;;5013574;28;1076;-74
2022/09/24 09:38:16;;;;;;;;;;;;;;;;;;5013295;28;1389;-74
2022/09/24 09:40:43;;;;;;;;;;;;;;;;;;5013132;28;1073;-74
2022/09/24 09:43:10;;;;;;;;;;;;;;;;;;5013001;28;1001;-75
2022/09/24 09:45:40;;;;;;;;;;;;;;;;;;5013409;28;1057;-74
2022/09/24 09:48:06;;;;;;;;;;;;;;;;;;5013194;28;1308;-74
2022/09/24 09:50:35;;;;;;;;;;;;;;;;;;5013370;28;776;-74
2022/09/24 09:53:03;;;;;;;;;;;;;;;;;;5012991;28;1072;-74
2022/09/24 09:55:30;;;;;;;;;;;;;;;;;;5012162;28;1988;-74
2022/09/24 09:57:58;;;;;;;;;;;;;;;;;;5013159;28;1064;-75
2022/09/24 10:00:26;;;;;;;;;;;;;;;;;;5010824;28;1245;-74
2022/09/24 10:02:53;;;;;;;;;;;;;;;;;;5012790;28;1060;-74
2022/09/24 10:05:20;;;;;;;;;;;;;;;;;;5011992;28;1064;-74
2022/09/24 10:07:46;;;;;;;;;;;;;;;;;;5028279;28;1016;-75
2022/09/24 10:10:16;;;;;;;;;;;;;;;;;;5012915;28;1392;-75
2022/09/24 10:12:43;;;;;;;;;;;;;;;;;;5012634;28;1075;-75
2022/09/24 10:15:16;;;;;;;;;;;;;;;;;;5012867;28;1974;-75
2022/09/24 10:17:42;;;;;;;;;;;;;;;;;;5012891;28;1432;-75
2022/09/24 10:20:15;;;;;;;;;;;;;;;;;;5012917;28;1293;-74
2022/09/24 10:22:43;;;;;;;;;;;;;;;;;;5027701;28;1184;-74
2022/09/24 10:25:16;;;;;;;;;;;;;;;;;;5012850;28;1056;-74
2022/09/24 10:27:42;;;;;;;;;;;;;;;;;;5027791;28;1057;-74
2022/09/24 10:32:56;;;;;;;;;;;;;;;;;;5012220;28;1006;-74
2022/09/24 10:35:25;;;;;;;;;;;;;;;;;;5012222;28;1961;-74
2022/09/24 10:37:52;;;;;;;;;;;;;;;;;;5012355;28;982;-74
2022/09/24 10:40:22;;;;;;;;;;;;;;;;;;5012283;28;1420;-73
2022/09/24 10:42:54;;;;;;;;;;;;;;;;;;5027304;28;993;-74
2022/09/24 10:45:20;;;;;;;;;;;;;;;;;;5010954;28;1366;-74
2022/09/24 10:47:48;;;;;;;;;;;;;;;;;;5012407;28;823;-74
2022/09/24 10:50:18;;;;;;;;;;;;;;;;;;5012160;28;1306;-74
2022/09/24 10:52:46;;;;;;;;;;;;;;;;;;5012055;28;1092;-75
2022/09/24 10:55:25;;;;;;;;;;;;;;;;;;5012210;28;1981;-75
2022/09/24 10:57:55;;;;;;;;;;;;;;;;;;5009862;28;1462;-74
2022/09/24 11:00:22;;;;;;;;;;;;;;;;;;5012248;28;1370;-74
2022/09/24 11:02:53;;;;;;;;;;;;;;;;;;5011928;28;966;-75
2022/09/24 11:05:20;;;;;;;;;;;;;;;;;;5012080;28;1088;-74
2022/09/24 11:07:55;;;;;;;;;;;;;;;;;;5011973;28;1060;-74
2022/09/24 11:10:23;;;;;;;;;;;;;;;;;;5011672;28;1326;-74
2022/09/24 11:12:52;;;;;;;;;;;;;;;;;;5011503;28;1152;-74
2022/09/24 11:15:23;;;;;;;;;;;;;;;;;;5011817;28;1977;-74
2022/09/24 11:17:53;;;;;;;;;;;;;;;;;;5011937;28;996;-75
2022/09/24 11:20:21;;;;;;;;;;;;;;;;;;5011688;28;1403;-74
2022/09/24 11:22:55;;;;;;;;;;;;;;;;;;5011551;28;1076;-74
2022/09/24 11:25:26;;;;;;;;;;;;;;;;;;5011670;28;1107;-74
2022/09/24 11:27:55;;;;;;;;;;;;;;;;;;5010391;28;848;-74
2022/09/24 11:30:23;;;;;;;;;;;;;;;;;;5009473;28;1437;-75
2022/09/24 11:33:00;;;;;;;;;;;;;;;;;;5011315;28;1080;-74
2022/09/24 11:35:30;;;;;;;;;;;;;;;;;;5011344;28;1914;-74
2022/09/24 11:38:00;;;;;;;;;;;;;;;;;;5011517;28;1122;-73
2022/09/24 11:40:29;;;;;;;;;;;;;;;;;;5011374;28;1084;-75
2022/09/24 11:42:58;;;;;;;;;;;;;;;;;;5011209;28;1101;-75
2022/09/24 11:45:31;;;;;;;;;;;;;;;;;;5010104;28;1247;-75
2022/09/24 11:48:02;;;;;;;;;;;;;;;;;;5011551;28;988;-74
2022/09/24 11:50:32;;;;;;;;;;;;;;;;;;5011463;28;1006;-74
2022/09/24 11:53:01;;;;;;;;;;;;;;;;;;5011179;28;1055;-75
2022/09/24 11:55:31;;;;;;;;;;;;;;;;;;5010164;28;1983;-73
2022/09/24 11:58:00;;;;;;;;;;;;;;;;;;5011585;28;1040;-72
2022/09/24 12:00:28;;;;;;;;;;;;;;;;;;5011399;28;996;-74
2022/09/24 12:02:55;;;;;;;;;;;;;;;;;;5011078;28;1138;-74
2022/09/24 12:05:27;;;;;;;;;;;;;;;;;;5010998;28;1127;-74
2022/09/24 12:07:54;;;;;;;;;;;;;;;;;;5011141;28;882;-74
2022/09/24 12:10:24;;;;;;;;;;;;;;;;;;5010943;28;1340;-74
2022/09/24 12:12:51;;;;;;;;;;;;;;;;;;5010793;28;1107;-74
2022/09/24 12:15:18;;;;;;;;;;;;;;;;;;5011150;28;1910;-73
2022/09/24 12:17:46;;;;;;;;;;;;;;;;;;5010987;28;1009;-74
2022/09/24 12:20:14;;;;;;;;;;;;;;;;;;5009688;28;1417;-74
2022/09/24 12:22:40;;;;;;;;;;;;;;;;;;5010647;28;1084;-74
2022/09/24 12:25:11;;;;;;;;;;;;;;;;;;5011204;28;1064;-74
2022/09/24 12:27:38;;;;;;;;;;;;;;;;;;5009701;28;1122;-74
2022/09/24 12:32:55;;;;;;;;;;;;;;;;;;5014600;28;1133;-74
2022/09/24 12:35:33;;;;;;;;;;;;;;;;;;5001729;28;1919;-74
2022/09/24 12:38:02;;;;;;;;;;;;;;;;;;4994871;28;1317;-72
2022/09/24 12:40:34;;;;;;;;;;;;;;;;;;4995127;28;914;-75
2022/09/24 12:43:02;;;;;;;;;;;;;;;;;;4994672;28;1100;-75
2022/09/24 12:45:28;;;;;;;;;;;;;;;;;;4993538;28;1025;-74
2022/09/24 12:47:55;;;;;;;;;;;;;;;;;;4994811;28;1061;-75
2022/09/24 12:50:22;;;;;;;;;;;;;;;;;;4993651;28;1393;-74
2022/09/24 12:52:48;;;;;;;;;;;;;;;;;;4994454;28;950;-74
2022/09/24 12:55:19;;;;;;;;;;;;;;;;;;4994702;28;1922;-74
2022/09/24 12:57:49;;;;;;;;;;;;;;;;;;4994701;28;1072;-74
2022/09/24 13:00:30;;;;;;;;;;;;;;;;;;4993251;28;1401;-74
2022/09/24 13:02:58;;;;;;;;;;;;;;;;;;4992569;28;1313;-74
2022/09/24 13:05:28;;;;;;;;;;;;;;;;;;4992150;28;1153;-74
2022/09/24 13:07:55;;;;;;;;;;;;;;;;;;4994599;28;1115;-75
2022/09/24 13:10:22;;;;;;;;;;;;;;;;;;4994493;28;1273;-75
2022/09/24 13:12:49;;;;;;;;;;;;;;;;;;4993942;28;1108;-73
2022/09/24 13:15:21;;;;;;;;;;;;;;;;;;4994241;28;1977;-75
2022/09/24 13:17:47;;;;;;;;;;;;;;;;;;4994396;28;1073;-74
2022/09/24 13:20:18;;;;;;;;;;;;;;;;;;4994070;28;1286;-74
2022/09/24 13:22:44;;;;;;;;;;;;;;;;;;4994064;28;792;-74
2022/09/24 13:25:22;;;;;;;;;;;;;;;;;;4994060;28;1864;-74
2022/09/24 13:27:59;;;;;;;;;;;;;;;;;;4993344;28;1175;-74
2022/09/24 13:30:31;;;;;;;;;;;;;;;;;;4992655;28;1116;-73
2022/09/24 13:32:59;;;;;;;;;;;;;;;;;;4992386;28;1375;-74
2022/09/24 13:35:28;;;;;;;;;;;;;;;;;;4993959;28;1985;-74
2022/09/24 13:37:55;;;;;;;;;;;;;;;;;;5002162;28;1604;-75
2022/09/24 13:40:22;;;;;;;;;;;;;;;;;;5013173;28;1298;-75
2022/09/24 13:42:49;;;;;;;;;;;;;;;;;;5013359;28;897;-75
2022/09/24 13:45:17;;;;;;;;;;;;;;;;;;5013694;28;1076;-72
2022/09/24 13:47:44;;;;;;;;;;;;;;;;;;5028422;28;1278;-72
2022/09/24 13:50:13;;;;;;;;;;;;;;;;;;5013352;28;1380;-73
2022/09/24 13:52:41;;;;;;;;;;;;;;;;;;5012975;28;841;-74
2022/09/24 13:55:10;;;;;;;;;;;;;;;;;;5011811;28;1926;-73
2022/09/24 13:57:42;;;;;;;;;;;;;;;;;;5013084;28;878;-73
2022/09/24 14:00:16;;;;;;;;;;;;;;;;;;5013160;28;1352;-73
2022/09/24 14:02:43;;;;;;;;;;;;;;;;;;5012904;28;779;-74
2022/09/24 14:05:15;;;;;;;;;;;;;;;;;;5013017;28;1053;-73
2022/09/24 14:07:42;;;;;;;;;;;;;;;;;;5013190;28;966;-72
2022/09/24 14:10:12;;;;;;;;;;;;;;;;;;5012882;28;1408;-72
2022/09/24 14:12:38;;;;;;;;;;;;;;;;;;5011174;28;1340;-72
2022/09/24 14:15:07;;;;;;;;;;;;;;;;;;5012843;28;1970;-73
2022/09/24 14:17:33;;;;;;;;;;;;;;;;;;5012508;28;1060;-73
2022/09/24 14:19:59;;;;;;;;;;;;;;;;;;5012780;28;1306;-73
2022/09/24 14:22:26;;;;;;;;;;;;;;;;;;5011320;28;1216;-73
2022/09/24 14:24:55;;;;;;;;;;;;;;;;;;5012842;28;803;-73
2022/09/24 14:27:22;;;;;;;;;;;;;;;;;;5012589;28;1080;-74
2022/09/24 14:29:48;;;;;;;;;;;;;;;;;;5012380;28;1307;-73
2022/09/24 14:32:19;;;;;;;;;;;;;;;;;;5012075;28;965;-72
2022/09/24 14:34:49;;;;;;;;;;;;;;;;;;5012394;28;1918;-74
2022/09/24 14:37:17;;;;;;;;;;;;;;;;;;5012357;28;1064;-73
2022/09/24 14:39:44;;;;;;;;;;;;;;;;;;5012293;28;1478;-74
2022/09/24 14:42:12;;;;;;;;;;;;;;;;;;5012022;28;953;-73
2022/09/24 14:44:38;;;;;;;;;;;;;;;;;;5012240;28;1061;-73
2022/09/24 14:47:05;;;;;;;;;;;;;;;;;;5011010;28;855;-73
2022/09/24 14:49:32;;;;;;;;;;;;;;;;;;5010836;28;1325;-73
2022/09/24 14:51:59;;;;;;;;;;;;;;;;;;5011511;28;965;-73
2022/09/24 14:54:29;;;;;;;;;;;;;;;;;;5010703;28;1139;-72
2022/09/24 14:56:56;;;;;;;;;;;;;;;;;;5012410;28;1986;-73
2022/09/24 14:59:28;;;;;;;;;;;;;;;;;;5010643;28;1369;-72
2022/09/24 15:01:55;;;;;;;;;;;;;;;;;;5010748;28;1199;-73
2022/09/24 15:04:22;;;;;;;;;;;;;;;;;;5010534;28;1108;-72
2022/09/24 15:06:48;;;;;;;;;;;;;;;;;;5012038;28;787;-73
2022/09/24 15:09:17;;;;;;;;;;;;;;;;;;5012156;28;1294;-73
2022/09/24 15:11:44;;;;;;;;;;;;;;;;;;5011577;28;1099;-73
2022/09/24 15:14:18;;;;;;;;;;;;;;;;;;5012158;28;1076;-73
2022/09/24 15:16:46;;;;;;;;;;;;;;;;;;5010516;28;1922;-72
2022/09/24 15:19:18;;;;;;;;;;;;;;;;;;5010187;28;2198;-73
2022/09/24 15:21:44;;;;;;;;;;;;;;;;;;5036534;22;3541;-76
2022/09/24 15:24:11;;;;;;;;;;;;;;;;;;5051108;28;1161;-76
2022/09/24 15:26:38;;;;;;;;;;;;;;;;;;5051379;28;957;-76
2022/09/24 15:29:04;;;;;;;;;;;;;;;;;;5051527;28;901;-77
2022/09/24 15:31:30;;;;;;;;;;;;;;;;;;5059650;28;1649;-77
2022/09/24 15:33:58;;;;;;;;;;;;;;;;;;5033495;28;1154;-77
2022/09/24 15:36:24;;;;;;;;;;;;;;;;;;5051291;28;1918;-77
2022/09/24 15:38:51;;;;;;;;;;;;;;;;;;5050236;28;1226;-77
2022/09/24 15:41:18;;;;;;;;;;;;;;;;;;5032913;28;1330;-75
2022/09/24 15:43:44;;;;;;;;;;;;;;;;;;5051000;28;1562;-76
2022/09/24 15:46:10;;;;;;;;;;;;;;;;;;5051424;28;1115;-77
2022/09/24 15:48:36;;;;;;;;;;;;;;;;;;5051024;28;700;-76
2022/09/24 15:51:04;;;;;;;;;;;;;;;;;;5051063;28;1320;-76
2022/09/24 15:53:30;;;;;;;;;;;;;;;;;;5032837;28;1227;-76
2022/09/24 15:55:58;;;;;;;;;;;;;;;;;;5051035;28;1910;-76
2022/09/24 15:58:24;;;;;;;;;;;;;;;;;;5051022;28;786;-77
2022/09/24 16:00:50;;;;;;;;;;;;;;;;;;5051170;28;790;-76
2022/09/24 16:03:18;;;;;;;;;;;;;;;;;;5050643;28;1396;-76
2022/09/24 16:05:44;;;;;;;;;;;;;;;;;;5055082;28;1122;-78
2022/09/24 16:08:12;;;;;;;;;;;;;;;;;;5037371;28;1176;-76
2022/09/24 16:10:38;;;;;;;;;;;;;;;;;;5037058;28;1294;-76
2022/09/24 16:13:04;;;;;;;;;;;;;;;;;;5036591;28;1393;-76
2022/09/24 16:15:31;;;;;;;;;;;;;;;;;;5054728;28;1910;-76
2022/09/24 16:17:57;;;;;;;;;;;;;;;;;;5054803;28;922;-76
2022/09/24 16:20:23;;;;;;;;;;;;;;;;;;5054435;28;1126;-76
2022/09/24 16:22:49;;;;;;;;;;;;;;;;;;5054314;28;1294;-76
2022/09/24 16:25:17;;;;;;;;;;;;;;;;;;5054428;28;1067;-76
2022/09/24 16:27:43;;;;;;;;;;;;;;;;;;5036663;28;1241;-76
2022/09/24 16:30:09;;;;;;;;;;;;;;;;;;5054231;28;803;-76
2022/09/24 16:32:35;;;;;;;;;;;;;;;;;;5053952;28;1326;-76
2022/09/24 16:35:02;;;;;;;;;;;;;;;;;;5054673;28;949;-76
2022/09/24 16:37:28;;;;;;;;;;;;;;;;;;5054187;28;1975;-76
2022/09/24 16:39:54;;;;;;;;;;;;;;;;;;5054416;28;1036;-76
2022/09/24 16:42:25;;;;;;;;;;;;;;;;;;5053823;28;1428;-75
2022/09/24 16:44:51;;;;;;;;;;;;;;;;;;5054894;28;866;-76
2022/09/24 16:47:19;;;;;;;;;;;;;;;;;;5036630;28;1448;-76
2022/09/24 16:49:45;;;;;;;;;;;;;;;;;;5054624;28;1151;-76
2022/09/24 16:52:11;;;;;;;;;;;;;;;;;;5053771;28;1321;-76
2022/09/24 16:54:37;;;;;;;;;;;;;;;;;;5054525;28;1076;-76
2022/09/24 16:57:05;;;;;;;;;;;;;;;;;;5053926;28;1973;-76
2022/09/24 16:59:32;;;;;;;;;;;;;;;;;;5054061;28;1381;-79
2022/09/24 17:01:58;;;;;;;;;;;;;;;;;;5053888;28;1292;-76
2022/09/24 17:04:25;;;;;;;;;;;;;;;;;;5053924;28;1131;-76
2022/09/24 17:06:53;;;;;;;;;;;;;;;;;;5053922;28;1103;-76
2022/09/24 17:12:03;;;;;;;;;;;;;;;;;;5053183;28;1405;-76
2022/09/24 17:14:29;;;;;;;;;;;;;;;;;;5053133;28;1068;-76
2022/09/24 17:16:56;;;;;;;;;;;;;;;;;;5053462;28;1906;-76
2022/09/24 17:19:23;;;;;;;;;;;;;;;;;;5035490;28;1224;-76
2022/09/24 17:21:49;;;;;;;;;;;;;;;;;;5052886;28;1417;-76
2022/09/24 17:24:15;;;;;;;;;;;;;;;;;;5053371;28;1072;-76
2022/09/24 17:26:42;;;;;;;;;;;;;;;;;;5053667;28;1063;-75
2022/09/24 17:29:08;;;;;;;;;;;;;;;;;;5053389;28;1122;-76
2022/09/24 17:31:35;;;;;;;;;;;;;;;;;;5053013;28;1317;-76